Time;durP1;ratioP1;P1;durP2;ratioP2;P2;SDS_P1;SDS_P2;PMS_P1;PMS_P2;Temp;Humidity;BMP_temperature;BMP_pressure;BME280_temperature;BME280_humidity;BME280_pressure;Samples;Min_cycle;Max_cycle;Signal;HPM_P1;HPM_P2
2021/10/10 00:00:14;;;;;;;;;;;;;;;5.37;50.55;96542.16;5025529;28;20382;-68
2021/10/10 00:02:40;;;;;;;;;;;;;;;5.38;50.86;96549.13;5019640;28;19921;-68
2021/10/10 00:05:05;;;;;;;;;;;;;;;5.40;49.17;96550.66;5019374;28;20425;-68
2021/10/10 00:07:30;;;;;;;;;;;;;;;5.29;52.45;96550.69;5024615;28;19917;-68
2021/10/10 00:09:56;;;;;;;;;;;;;;;5.31;49.22;96543.50;5025148;28;19925;-67
2021/10/10 00:12:21;;;;;;;;;;;;;;;5.35;51.50;96543.09;5024783;28;19917;-68
2021/10/10 00:14:46;;;;;;;;;;;;;;;5.34;49.03;96546.72;5024636;28;19917;-68
2021/10/10 00:17:11;;;;;;;;;;;;;;;5.34;51.51;96548.53;5021715;28;19925;-68
2021/10/10 00:19:37;;;;;;;;;;;;;;;5.25;53.89;96549.25;5021947;28;19921;-68
2021/10/10 00:22:02;;;;;;;;;;;;;;;5.16;50.50;96553.44;5025349;28;19929;-68
2021/10/10 00:24:27;;;;;;;;;;;;;;;5.16;49.51;96551.66;5024609;28;20025;-68
2021/10/10 00:26:52;;;;;;;;;;;;;;;5.12;51.14;96552.84;5024596;28;19929;-68
2021/10/10 00:29:18;;;;;;;;;;;;;;;5.12;48.98;96550.22;5021129;28;19913;-68
2021/10/10 00:31:43;;;;;;;;;;;;;;;5.08;51.02;96554.91;5024533;28;20565;-66
2021/10/10 00:34:09;;;;;;;;;;;;;;;5.03;50.76;96549.09;5024120;28;19921;-66
2021/10/10 00:36:34;;;;;;;;;;;;;;;4.99;53.24;96549.47;5024717;28;20011;-66
2021/10/10 00:39:00;;;;;;;;;;;;;;;4.95;50.59;96548.88;5024267;28;19924;-67
2021/10/10 00:41:25;;;;;;;;;;;;;;;4.89;52.26;96547.53;5024636;28;20361;-67
2021/10/10 00:43:50;;;;;;;;;;;;;;;4.85;50.60;96546.09;5024243;28;19942;-68
2021/10/10 00:46:15;;;;;;;;;;;;;;;4.82;52.64;96543.69;5024385;28;19918;-67
2021/10/10 00:48:41;;;;;;;;;;;;;;;4.82;53.79;96551.59;5024212;28;20310;-68
2021/10/10 00:51:06;;;;;;;;;;;;;;;4.75;54.99;96550.41;5020105;28;19998;-68
2021/10/10 00:53:31;;;;;;;;;;;;;;;4.70;52.26;96541.03;5024387;28;19917;-68
2021/10/10 00:55:57;;;;;;;;;;;;;;;4.75;52.02;96547.75;5022495;28;19921;-68
2021/10/10 00:58:22;;;;;;;;;;;;;;;4.63;51.95;96553.00;5023118;28;19999;-68
2021/10/10 01:00:49;;;;;;;;;;;;;;;4.61;50.55;96551.47;5022967;28;20286;-68
2021/10/10 01:03:14;;;;;;;;;;;;;;;4.58;49.69;96544.63;5019090;28;19926;-69
2021/10/10 01:05:39;;;;;;;;;;;;;;;4.55;51.59;96543.06;5023686;28;19924;-69
2021/10/10 01:08:04;;;;;;;;;;;;;;;4.52;55.87;96540.66;5023873;28;19917;-69
2021/10/10 01:10:30;;;;;;;;;;;;;;;4.44;55.24;96538.63;5023247;28;20637;-68
2021/10/10 01:12:55;;;;;;;;;;;;;;;4.45;52.91;96542.94;5023818;28;20003;-68
2021/10/10 01:15:20;;;;;;;;;;;;;;;4.48;52.62;96541.00;5022425;28;19927;-66
2021/10/10 01:17:46;;;;;;;;;;;;;;;4.44;54.55;96540.41;5020441;28;19960;-68
2021/10/10 01:20:11;;;;;;;;;;;;;;;4.49;53.65;96540.88;5022393;28;19957;-69
2021/10/10 01:22:37;;;;;;;;;;;;;;;4.44;50.66;96535.13;5022804;28;19955;-67
2021/10/10 01:25:03;;;;;;;;;;;;;;;4.41;49.62;96533.56;5022549;28;19918;-68
2021/10/10 01:27:28;;;;;;;;;;;;;;;4.39;49.92;96534.66;5022577;28;19924;-68
2021/10/10 01:29:53;;;;;;;;;;;;;;;4.36;49.17;96527.81;5024328;28;19975;-67
2021/10/10 01:32:19;;;;;;;;;;;;;;;4.32;52.64;96531.66;5023883;28;20322;-67
2021/10/10 01:34:44;;;;;;;;;;;;;;;4.27;53.16;96531.13;5023496;28;19921;-67
2021/10/10 01:37:10;;;;;;;;;;;;;;;4.24;52.80;96529.56;5022703;28;20000;-67
2021/10/10 01:39:35;;;;;;;;;;;;;;;4.21;50.40;96526.34;5023604;28;20008;-67
2021/10/10 01:42:00;;;;;;;;;;;;;;;4.23;51.44;96516.50;5023832;28;19917;-67
2021/10/10 01:44:25;;;;;;;;;;;;;;;4.20;48.33;96517.59;5022135;28;19983;-67
2021/10/10 01:46:51;;;;;;;;;;;;;;;4.25;49.96;96525.97;5027265;28;19987;-67
2021/10/10 01:49:16;;;;;;;;;;;;;;;4.23;53.98;96517.34;5027898;28;19921;-67
2021/10/10 01:51:42;;;;;;;;;;;;;;;4.08;57.29;96514.06;5023406;28;20298;-67
2021/10/10 01:54:07;;;;;;;;;;;;;;;4.09;56.83;96517.53;5027816;28;19925;-68
2021/10/10 01:56:32;;;;;;;;;;;;;;;4.08;55.69;96514.06;5027222;28;20382;-69
2021/10/10 01:58:57;;;;;;;;;;;;;;;4.04;53.81;96510.81;5027054;28;19948;-67
2021/10/10 02:01:23;;;;;;;;;;;;;;;4.07;54.55;96513.22;5027884;28;19925;-67
2021/10/10 02:03:48;;;;;;;;;;;;;;;4.01;53.63;96508.41;5015983;28;20227;-67
2021/10/10 02:06:13;;;;;;;;;;;;;;;3.92;51.93;96509.94;5027968;28;20386;-67
2021/10/10 02:08:38;;;;;;;;;;;;;;;3.92;50.79;96511.75;5027404;28;19944;-67
2021/10/10 02:11:04;;;;;;;;;;;;;;;3.92;51.22;96504.66;5027274;28;20016;-66
2021/10/10 02:13:29;;;;;;;;;;;;;;;3.92;52.61;96512.56;5027721;28;19918;-67
2021/10/10 02:15:55;;;;;;;;;;;;;;;3.94;53.94;96501.91;5005638;28;19929;-67
2021/10/10 02:18:20;;;;;;;;;;;;;;;3.93;54.37;96500.25;5007784;28;19976;-67
2021/10/10 02:20:46;;;;;;;;;;;;;;;3.89;52.39;96497.00;5004450;28;19921;-67
2021/10/10 02:23:11;;;;;;;;;;;;;;;3.90;51.98;96496.03;5013358;28;19922;-67
2021/10/10 02:25:36;;;;;;;;;;;;;;;3.87;51.15;96488.38;4999770;28;20325;-68
2021/10/10 02:28:02;;;;;;;;;;;;;;;3.87;51.41;96492.78;4997817;28;19921;-68
2021/10/10 02:30:27;;;;;;;;;;;;;;;3.84;50.59;96485.94;4997470;28;19928;-67
2021/10/10 02:32:52;;;;;;;;;;;;;;;3.80;51.54;96484.50;4999215;28;20458;-68
2021/10/10 02:35:18;;;;;;;;;;;;;;;3.79;52.54;96488.94;4999430;28;20437;-67
2021/10/10 02:37:43;;;;;;;;;;;;;;;3.77;52.21;96484.72;4998487;28;19921;-67
2021/10/10 02:40:09;;;;;;;;;;;;;;;3.77;52.51;96487.34;4999363;28;20466;-67
2021/10/10 02:42:34;;;;;;;;;;;;;;;3.73;49.82;96485.91;5013238;28;19918;-67
2021/10/10 02:44:59;;;;;;;;;;;;;;;3.66;51.74;96493.41;4999316;28;19944;-66
2021/10/10 02:47:25;;;;;;;;;;;;;;;3.58;49.45;96488.72;4997071;28;19932;-67
2021/10/10 02:49:50;;;;;;;;;;;;;;;3.49;48.02;96489.38;5001646;28;19922;-67
2021/10/10 02:52:16;;;;;;;;;;;;;;;3.23;53.58;96500.00;4997090;28;20129;-68
2021/10/10 02:54:42;;;;;;;;;;;;;;;3.24;55.39;96494.63;4999487;28;19920;-67
2021/10/10 02:57:07;;;;;;;;;;;;;;;3.29;51.87;96500.38;4993895;28;19914;-66
2021/10/10 02:59:32;;;;;;;;;;;;;;;3.35;48.10;96495.63;4994426;28;19922;-66
2021/10/10 03:01:57;;;;;;;;;;;;;;;3.38;51.44;96491.00;4994875;28;20418;-67
2021/10/10 03:04:23;;;;;;;;;;;;;;;3.16;48.64;96482.00;4996736;28;20023;-67
2021/10/10 03:06:48;;;;;;;;;;;;;;;3.25;53.33;96480.50;4996929;28;19926;-67
2021/10/10 03:09:14;;;;;;;;;;;;;;;3.40;49.63;96486.44;5001292;28;19920;-67
2021/10/10 03:11:39;;;;;;;;;;;;;;;3.50;52.01;96477.94;5011552;28;19957;-67
2021/10/10 03:14:05;;;;;;;;;;;;;;;3.53;47.79;96483.78;5006882;28;19964;-66
2021/10/10 03:16:30;;;;;;;;;;;;;;;3.58;49.67;96483.47;5005042;28;20004;-67
2021/10/10 03:18:55;;;;;;;;;;;;;;;3.60;50.96;96483.34;5001056;28;19939;-67
2021/10/10 03:21:20;;;;;;;;;;;;;;;3.59;46.83;96484.28;5037652;28;19912;-68
2021/10/10 03:23:46;;;;;;;;;;;;;;;3.63;51.62;96481.31;5006019;28;19929;-68
2021/10/10 03:26:12;;;;;;;;;;;;;;;3.55;48.09;96483.69;5006467;28;20654;-67
2021/10/10 03:28:37;;;;;;;;;;;;;;;3.48;49.40;96474.56;5002936;28;19922;-68
2021/10/10 03:31:03;;;;;;;;;;;;;;;3.45;48.78;96480.03;5005607;28;19925;-67
2021/10/10 03:33:29;;;;;;;;;;;;;;;3.39;49.61;96476.03;5006226;28;19929;-67
2021/10/10 03:35:54;;;;;;;;;;;;;;;3.25;46.74;96480.50;5006117;28;19917;-67
2021/10/10 03:38:19;;;;;;;;;;;;;;;3.28;51.88;96479.44;5006259;28;19921;-68
2021/10/10 03:40:44;;;;;;;;;;;;;;;3.14;48.93;96477.81;5005678;28;19921;-68
2021/10/10 03:43:10;;;;;;;;;;;;;;;3.07;49.80;96474.78;5005750;28;20367;-67
2021/10/10 03:45:35;;;;;;;;;;;;;;;3.05;49.00;96476.66;5005980;28;19924;-67
2021/10/10 03:48:00;;;;;;;;;;;;;;;2.93;48.46;96475.75;5005897;28;19922;-68
2021/10/10 03:50:25;;;;;;;;;;;;;;;2.78;47.83;96482.94;5002263;28;20358;-68
2021/10/10 03:52:52;;;;;;;;;;;;;;;2.70;48.14;96480.00;5005559;28;19917;-67
2021/10/10 03:55:34;;;;;;;;;;;;;;;2.65;49.10;96478.53;5005921;28;19944;-67
2021/10/10 03:57:59;;;;;;;;;;;;;;;2.62;48.26;96478.72;5000485;28;20392;-68
2021/10/10 04:00:25;;;;;;;;;;;;;;;2.57;49.79;96478.22;5005478;28;20053;-68
2021/10/10 04:02:50;;;;;;;;;;;;;;;2.60;50.63;96480.66;4983518;28;19921;-68
2021/10/10 04:05:21;;;;;;;;;;;;;;;2.61;50.63;96474.44;4995846;28;19914;-68
2021/10/10 04:07:46;;;;;;;;;;;;;;;2.56;52.24;96479.19;4997881;28;19952;-67
2021/10/10 04:10:11;;;;;;;;;;;;;;;2.49;51.22;96481.38;4995745;28;19918;-67
2021/10/10 04:12:36;;;;;;;;;;;;;;;2.45;48.69;96485.16;4997710;28;20378;-67
2021/10/10 04:15:02;;;;;;;;;;;;;;;2.41;49.20;96490.75;5001991;28;19925;-67
2021/10/10 04:17:27;;;;;;;;;;;;;;;2.39;50.87;96486.41;4994454;28;19929;-68
2021/10/10 04:19:53;;;;;;;;;;;;;;;2.37;48.33;96490.94;5001496;28;20355;-67
2021/10/10 04:22:18;;;;;;;;;;;;;;;2.39;49.83;96491.66;4998096;28;19932;-67
2021/10/10 04:24:43;;;;;;;;;;;;;;;2.35;49.09;96487.56;4994895;28;20217;-68
2021/10/10 04:27:08;;;;;;;;;;;;;;;2.36;50.37;96491.91;4998208;28;20358;-67
2021/10/10 04:29:34;;;;;;;;;;;;;;;2.32;47.02;96500.09;4987407;28;20286;-67
2021/10/10 04:31:59;;;;;;;;;;;;;;;2.36;50.90;96504.19;5012048;28;19921;-67
2021/10/10 04:34:24;;;;;;;;;;;;;;;2.32;48.66;96500.94;5007239;28;19924;-68
2021/10/10 04:36:49;;;;;;;;;;;;;;;2.32;48.93;96503.56;5024550;28;19956;-68
2021/10/10 04:39:15;;;;;;;;;;;;;;;2.31;49.77;96496.63;5024684;28;20373;-68
2021/10/10 04:41:40;;;;;;;;;;;;;;;2.29;50.62;96495.91;5023581;28;19939;-68
2021/10/10 04:44:05;;;;;;;;;;;;;;;2.23;47.96;96498.91;5024511;28;19928;-67
2021/10/10 04:46:30;;;;;;;;;;;;;;;2.19;49.90;96490.41;5024614;28;19925;-68
2021/10/10 04:48:56;;;;;;;;;;;;;;;2.13;48.76;96494.31;5024468;28;19921;-68
2021/10/10 04:51:21;;;;;;;;;;;;;;;2.11;50.33;96482.22;5021146;28;20458;-66
2021/10/10 04:53:46;;;;;;;;;;;;;;;2.09;48.45;96479.69;5025008;28;19921;-67
2021/10/10 04:56:11;;;;;;;;;;;;;;;2.07;49.01;96488.59;5024545;28;20334;-68
2021/10/10 04:58:37;;;;;;;;;;;;;;;2.01;48.22;96484.63;5024712;28;19928;-67
2021/10/10 05:01:02;;;;;;;;;;;;;;;1.99;48.29;96482.09;5024173;28;19923;-67
2021/10/10 05:03:27;;;;;;;;;;;;;;;1.96;48.94;96479.66;5012733;28;20325;-68
2021/10/10 05:05:52;;;;;;;;;;;;;;;1.88;50.80;96477.53;5024568;28;19928;-68
2021/10/10 05:08:18;;;;;;;;;;;;;;;1.63;48.93;96488.81;5022741;28;20004;-66
2021/10/10 05:10:43;;;;;;;;;;;;;;;1.52;48.47;96484.25;5023923;28;19995;-68
2021/10/10 05:13:08;;;;;;;;;;;;;;;1.61;54.72;96486.28;5024392;28;20239;-67
2021/10/10 05:15:33;;;;;;;;;;;;;;;1.73;56.70;96486.44;5023766;28;19968;-68
2021/10/10 05:17:59;;;;;;;;;;;;;;;1.84;55.00;96483.13;5022548;28;19971;-67
2021/10/10 05:20:24;;;;;;;;;;;;;;;2.06;53.85;96484.28;5023813;28;19917;-68
2021/10/10 05:22:49;;;;;;;;;;;;;;;2.12;53.64;96483.88;5024019;28;20327;-69
2021/10/10 05:25:15;;;;;;;;;;;;;;;2.16;54.12;96476.63;5024211;28;19917;-66
2021/10/10 05:27:41;;;;;;;;;;;;;;;2.14;49.90;96479.34;5024069;28;20335;-68
2021/10/10 05:30:06;;;;;;;;;;;;;;;2.15;51.55;96475.81;5021489;28;20305;-68
2021/10/10 05:32:31;;;;;;;;;;;;;;;2.23;49.56;96467.38;5022065;28;20008;-67
2021/10/10 05:34:57;;;;;;;;;;;;;;;2.29;53.50;96471.38;5023802;28;20214;-67
2021/10/10 05:37:22;;;;;;;;;;;;;;;2.30;52.13;96473.06;5022782;28;19913;-66
2021/10/10 05:39:48;;;;;;;;;;;;;;;2.31;53.48;96462.44;5022210;28;19925;-66
2021/10/10 05:42:13;;;;;;;;;;;;;;;2.30;50.67;96466.03;5022580;28;20437;-68
2021/10/10 05:44:38;;;;;;;;;;;;;;;2.29;49.59;96466.97;5023457;28;19921;-66
2021/10/10 05:47:03;;;;;;;;;;;;;;;2.32;51.37;96474.66;5023501;28;19925;-66
2021/10/10 05:49:29;;;;;;;;;;;;;;;2.24;49.40;96469.06;5021366;28;19917;-66
2021/10/10 05:51:57;;;;;;;;;;;;;;;2.20;49.33;96465.81;5022038;28;20263;-67
2021/10/10 05:54:23;;;;;;;;;;;;;;;2.14;48.21;96464.44;5023881;28;19928;-67
2021/10/10 05:56:48;;;;;;;;;;;;;;;2.10;48.60;96467.38;5023615;28;19925;-67
2021/10/10 05:59:15;;;;;;;;;;;;;;;2.06;48.16;96461.50;5023540;28;19956;-67
2021/10/10 06:01:41;;;;;;;;;;;;;;;2.01;46.67;96466.22;5023960;28;20363;-67
2021/10/10 06:04:06;;;;;;;;;;;;;;;2.04;50.17;96462.56;5021923;28;20019;-66
2021/10/10 06:06:31;;;;;;;;;;;;;;;2.05;50.78;96458.97;5024072;28;19925;-66
2021/10/10 06:08:56;;;;;;;;;;;;;;;2.08;49.03;96461.41;5023737;28;20117;-68
2021/10/10 06:11:22;;;;;;;;;;;;;;;2.11;50.31;96462.03;5023319;28;20270;-67
2021/10/10 06:13:47;;;;;;;;;;;;;;;2.20;50.99;96462.34;5022609;28;19924;-67
2021/10/10 06:16:12;;;;;;;;;;;;;;;2.31;51.34;96462.44;5023275;28;19933;-67
2021/10/10 06:18:38;;;;;;;;;;;;;;;2.34;48.04;96459.63;5022617;28;19956;-67
2021/10/10 06:21:03;;;;;;;;;;;;;;;2.37;48.41;96462.03;5023409;28;19917;-67
2021/10/10 06:23:28;;;;;;;;;;;;;;;2.45;50.29;96461.50;5023410;28;19921;-66
2021/10/10 06:25:53;;;;;;;;;;;;;;;2.51;48.07;96458.47;5023955;28;20220;-67
2021/10/10 06:28:19;;;;;;;;;;;;;;;2.63;50.79;96453.28;5022026;28;20024;-67
2021/10/10 06:30:44;;;;;;;;;;;;;;;2.68;48.87;96459.06;5020183;28;20326;-67
2021/10/10 06:33:10;;;;;;;;;;;;;;;2.78;48.76;96461.88;5025601;28;19920;-67
2021/10/10 06:35:35;;;;;;;;;;;;;;;2.90;47.41;96461.00;5026516;28;20269;-67
2021/10/10 06:38:00;;;;;;;;;;;;;;;3.04;47.06;96460.03;5027715;28;20310;-67
2021/10/10 06:40:26;;;;;;;;;;;;;;;3.19;48.48;96464.31;5026861;28;19978;-66
2021/10/10 06:42:51;;;;;;;;;;;;;;;3.26;47.24;96466.38;5026206;28;19933;-67
2021/10/10 06:45:16;;;;;;;;;;;;;;;3.37;48.57;96462.97;5027129;28;19909;-67
2021/10/10 06:47:41;;;;;;;;;;;;;;;3.51;50.20;96466.44;5026552;28;19921;-67
2021/10/10 06:50:07;;;;;;;;;;;;;;;3.66;49.02;96460.03;5023077;28;20416;-66
2021/10/10 06:52:32;;;;;;;;;;;;;;;3.84;49.35;96466.69;5024733;28;19925;-67
2021/10/10 06:54:57;;;;;;;;;;;;;;;3.96;47.49;96467.53;5026827;28;19913;-67
2021/10/10 06:57:25;;;;;;;;;;;;;;;4.11;47.33;96458.47;5026969;28;20433;-67
2021/10/10 06:59:50;;;;;;;;;;;;;;;4.30;47.58;96459.72;5026810;28;19991;-68
2021/10/10 07:02:15;;;;;;;;;;;;;;;4.45;47.04;96463.81;5009266;28;20306;-67
2021/10/10 07:04:41;;;;;;;;;;;;;;;4.64;48.31;96458.91;5024103;28;19931;-67
2021/10/10 07:07:06;;;;;;;;;;;;;;;4.78;49.00;96463.09;5026469;28;19953;-67
2021/10/10 07:09:31;;;;;;;;;;;;;;;4.92;46.58;96467.28;5027543;28;19921;-67
2021/10/10 07:11:56;;;;;;;;;;;;;;;5.07;47.55;96467.91;5025094;28;19928;-67
2021/10/10 07:14:22;;;;;;;;;;;;;;;5.16;46.62;96464.53;5026791;28;20386;-68
2021/10/10 07:16:47;;;;;;;;;;;;;;;5.29;46.81;96467.03;5025858;28;19933;-67
2021/10/10 07:19:12;;;;;;;;;;;;;;;5.43;45.31;96480.91;5026243;28;19968;-67
2021/10/10 07:26:51;;;;;;;;;;;;;;;5.98;46.01;96480.84;5033833;28;19913;-67
2021/10/10 07:29:17;;;;;;;;;;;;;;;6.17;46.21;96481.09;5026914;28;19924;-67
2021/10/10 07:31:42;;;;;;;;;;;;;;;6.41;45.01;96480.84;5025957;28;20279;-68
2021/10/10 07:34:07;;;;;;;;;;;;;;;6.54;43.47;96487.75;5025339;28;19971;-68
2021/10/10 07:36:33;;;;;;;;;;;;;;;6.72;45.89;96483.53;5024960;28;20298;-66
2021/10/10 07:38:58;;;;;;;;;;;;;;;6.99;47.90;96494.50;5025542;28;19921;-68
2021/10/10 07:41:23;;;;;;;;;;;;;;;7.19;43.92;96490.13;5026686;28;20123;-67
2021/10/10 07:43:49;;;;;;;;;;;;;;;7.43;43.22;96485.44;5025996;28;19921;-67
2021/10/10 07:46:22;;;;;;;;;;;;;;;7.66;43.63;96493.97;5026466;28;20398;-68
2021/10/10 07:48:47;;;;;;;;;;;;;;;7.94;44.31;96485.34;5026330;28;19921;-68
2021/10/10 07:51:13;;;;;;;;;;;;;;;8.18;40.92;96485.78;5025986;28;19917;-68
2021/10/10 07:53:38;;;;;;;;;;;;;;;8.40;40.39;96477.66;5026416;28;19928;-67
2021/10/10 07:56:03;;;;;;;;;;;;;;;8.66;42.43;96479.66;5025735;28;20012;-68
2021/10/10 07:58:29;;;;;;;;;;;;;;;8.81;39.36;96478.19;5019823;28;19964;-68
2021/10/10 08:00:54;;;;;;;;;;;;;;;9.04;41.34;96477.03;5026253;28;19917;-68
2021/10/10 08:03:19;;;;;;;;;;;;;;;9.29;40.71;96482.63;5019070;28;19925;-68
2021/10/10 08:05:44;;;;;;;;;;;;;;;9.48;37.70;96481.69;5015714;28;20032;-67
2021/10/10 08:08:10;;;;;;;;;;;;;;;9.63;35.94;96473.19;5021394;28;19967;-67
2021/10/10 08:10:35;;;;;;;;;;;;;;;9.83;37.18;96471.22;5017382;28;20401;-69
2021/10/10 08:13:00;;;;;;;;;;;;;;;10.01;37.31;96471.22;5019354;28;19930;-67
2021/10/10 08:15:26;;;;;;;;;;;;;;;10.22;36.01;96476.25;5021585;28;20398;-69
2021/10/10 08:17:51;;;;;;;;;;;;;;;10.41;33.44;96466.41;5020004;28;19951;-67
2021/10/10 08:20:16;;;;;;;;;;;;;;;10.64;37.56;96463.19;4997264;28;19956;-68
2021/10/10 08:22:42;;;;;;;;;;;;;;;10.72;32.29;96473.06;5005062;28;19921;-67
2021/10/10 08:25:08;;;;;;;;;;;;;;;10.91;32.15;96471.16;5008151;28;19929;-69
2021/10/10 08:27:34;;;;;;;;;;;;;;;11.11;39.50;96475.28;5016285;28;19925;-69
2021/10/10 08:29:59;;;;;;;;;;;;;;;11.35;34.87;96467.53;5011202;28;20004;-69
2021/10/10 08:32:24;;;;;;;;;;;;;;;11.45;32.25;96470.03;5020696;28;19921;-69
2021/10/10 08:34:49;;;;;;;;;;;;;;;11.69;30.06;96473.78;5020462;28;20318;-67
2021/10/10 08:37:15;;;;;;;;;;;;;;;11.67;29.04;96471.28;5021047;28;20070;-67
2021/10/10 08:39:40;;;;;;;;;;;;;;;11.85;32.02;96470.28;5021019;28;19928;-67
2021/10/10 08:42:06;;;;;;;;;;;;;;;12.26;29.54;96472.16;5019746;28;19921;-69
2021/10/10 08:44:36;;;;;;;;;;;;;;;12.39;30.54;96471.66;5020657;28;19932;-69
2021/10/10 08:47:05;;;;;;;;;;;;;;;12.34;28.01;96471.34;5020864;28;20238;-69
2021/10/10 08:49:30;;;;;;;;;;;;;;;12.35;27.82;96476.53;5021411;28;19913;-69
2021/10/10 08:51:55;;;;;;;;;;;;;;;12.65;33.50;96481.31;5020862;28;19925;-69
2021/10/10 08:54:21;;;;;;;;;;;;;;;12.72;29.92;96482.28;5021094;28;20006;-69
2021/10/10 08:56:46;;;;;;;;;;;;;;;12.88;30.05;96484.09;5018603;28;19928;-69
2021/10/10 08:59:12;;;;;;;;;;;;;;;13.15;26.53;96482.03;5020676;28;19925;-69
2021/10/10 09:01:38;;;;;;;;;;;;;;;13.30;27.99;96483.97;5021365;28;19917;-69
2021/10/10 09:04:03;;;;;;;;;;;;;;;13.43;25.25;96473.53;5012423;28;19921;-69
2021/10/10 09:06:30;;;;;;;;;;;;;;;13.35;28.68;96484.28;5020551;28;20098;-70
2021/10/10 09:08:55;;;;;;;;;;;;;;;13.49;28.35;96488.06;5018551;28;19924;-69
2021/10/10 09:11:20;;;;;;;;;;;;;;;13.80;28.12;96487.19;5017295;28;20401;-70
2021/10/10 09:13:47;;;;;;;;;;;;;;;13.54;24.75;96485.66;5019557;28;20001;-69
2021/10/10 09:16:14;;;;;;;;;;;;;;;13.59;29.31;96484.34;5019796;28;19939;-68
2021/10/10 09:18:43;;;;;;;;;;;;;;;13.70;25.14;96483.91;5019597;28;20367;-68
2021/10/10 09:21:15;;;;;;;;;;;;;;;13.89;24.55;96474.63;5020292;28;19921;-68
2021/10/10 09:23:40;;;;;;;;;;;;;;;13.97;23.72;96483.63;5017288;28;19933;-70
2021/10/10 09:26:06;;;;;;;;;;;;;;;13.87;24.21;96479.28;5015828;28;19925;-70
2021/10/10 09:28:31;;;;;;;;;;;;;;;13.95;22.62;96481.94;5017277;28;20335;-70
2021/10/10 09:31:15;;;;;;;;;;;;;;;13.82;23.10;96479.00;5020275;28;19932;-70
2021/10/10 09:33:43;;;;;;;;;;;;;;;13.77;29.99;96468.81;5018952;28;19956;-70
2021/10/10 09:36:16;;;;;;;;;;;;;;;14.11;26.35;96463.25;5019816;28;20354;-70
2021/10/10 09:38:45;;;;;;;;;;;;;;;14.27;25.97;96456.91;5018753;28;20433;-70
2021/10/10 09:41:25;;;;;;;;;;;;;;;14.44;24.47;96452.25;5020209;28;19925;-68
2021/10/10 09:43:56;;;;;;;;;;;;;;;14.61;24.42;96447.56;5008852;28;19929;-70
2021/10/10 09:46:22;;;;;;;;;;;;;;;14.72;26.30;96449.78;5018600;28;19917;-70
2021/10/10 09:48:47;;;;;;;;;;;;;;;14.70;26.59;96456.34;5019385;28;20401;-70
2021/10/10 09:51:25;;;;;;;;;;;;;;;14.67;30.05;96467.44;5020010;28;19959;-68
2021/10/10 09:53:51;;;;;;;;;;;;;;;14.60;26.83;96467.34;5018006;28;19967;-69
2021/10/10 09:56:16;;;;;;;;;;;;;;;14.83;24.43;96464.59;5017457;28;20345;-70
2021/10/10 09:58:42;;;;;;;;;;;;;;;14.99;24.02;96465.44;5018862;28;20352;-69
2021/10/10 10:01:18;;;;;;;;;;;;;;;15.00;24.89;96472.47;5024671;28;19928;-70
2021/10/10 10:04:06;;;;;;;;;;;;;;;15.27;25.15;96467.47;5011661;28;19932;-70
2021/10/10 10:06:38;;;;;;;;;;;;;;;15.30;23.81;96460.88;5017293;28;19925;-70
2021/10/10 10:09:07;;;;;;;;;;;;;;;15.63;22.03;96457.78;5021414;28;19944;-69
2021/10/10 10:11:34;;;;;;;;;;;;;;;15.79;22.18;96458.56;5019900;28;19921;-70
2021/10/10 10:14:00;;;;;;;;;;;;;;;15.70;22.71;96469.41;5020924;28;19948;-69
2021/10/10 10:16:25;;;;;;;;;;;;;;;16.05;22.77;96467.91;5023284;28;19968;-69
2021/10/10 10:18:51;;;;;;;;;;;;;;;16.17;22.97;96460.97;5021509;28;20389;-69
2021/10/10 10:21:16;;;;;;;;;;;;;;;16.32;20.06;96474.31;5022415;28;20290;-69
2021/10/10 10:23:41;;;;;;;;;;;;;;;16.61;19.32;96466.31;5023106;28;19972;-69
2021/10/10 10:26:07;;;;;;;;;;;;;;;16.65;19.05;96462.19;5023814;28;19917;-70
2021/10/10 10:28:32;;;;;;;;;;;;;;;16.22;20.08;96463.91;5021533;28;19928;-70
2021/10/10 10:30:57;;;;;;;;;;;;;;;16.28;20.47;96464.19;5021699;28;19917;-70
2021/10/10 10:33:22;;;;;;;;;;;;;;;16.38;20.74;96456.63;5022053;28;20259;-70
2021/10/10 10:35:48;;;;;;;;;;;;;;;16.64;19.77;96458.69;5020449;28;20378;-70
2021/10/10 10:38:14;;;;;;;;;;;;;;;16.80;21.04;96466.66;5022190;28;19932;-70
2021/10/10 10:40:40;;;;;;;;;;;;;;;16.87;19.55;96459.47;5022710;28;20008;-70
2021/10/10 10:43:06;;;;;;;;;;;;;;;16.76;21.17;96464.34;5022709;28;19933;-70
2021/10/10 10:45:33;;;;;;;;;;;;;;;17.19;20.05;96461.69;5021675;28;20402;-70
2021/10/10 10:47:59;;;;;;;;;;;;;;;17.26;21.20;96465.25;5022820;28;19921;-70
2021/10/10 10:50:24;;;;;;;;;;;;;;;17.54;20.45;96475.09;5023417;28;19917;-70
2021/10/10 10:52:59;;;;;;;;;;;;;;;17.66;19.12;96475.34;5021022;28;19921;-70
2021/10/10 10:55:25;;;;;;;;;;;;;;;17.99;19.39;96469.25;5022365;28;20016;-70
2021/10/10 10:57:53;;;;;;;;;;;;;;;17.99;21.85;96477.34;5022034;28;19925;-70
2021/10/10 11:00:25;;;;;;;;;;;;;;;17.99;21.73;96481.88;5021638;28;20407;-70
2021/10/10 11:02:50;;;;;;;;;;;;;;;18.11;21.41;96474.84;5021225;28;20063;-70
2021/10/10 11:05:36;;;;;;;;;;;;;;;18.26;22.24;96480.03;5020947;28;20027;-70
2021/10/10 11:08:19;;;;;;;;;;;;;;;18.59;18.72;96466.81;5020619;28;20063;-68
2021/10/10 11:10:59;;;;;;;;;;;;;;;18.31;18.28;96464.09;5020077;28;19960;-68
2021/10/10 11:13:25;;;;;;;;;;;;;;;18.65;16.81;96460.56;5001141;28;19918;-68
2021/10/10 11:16:11;;;;;;;;;;;;;;;18.89;17.35;96469.03;5001549;28;20329;-68
2021/10/10 11:18:40;;;;;;;;;;;;;;;18.90;18.14;96457.22;5001571;28;20674;-68
2021/10/10 11:21:06;;;;;;;;;;;;;;;18.55;19.94;96451.00;5020715;28;19995;-69
2021/10/10 11:23:31;;;;;;;;;;;;;;;18.60;22.48;96445.03;5021641;28;19937;-69
2021/10/10 11:25:59;;;;;;;;;;;;;;;18.75;21.55;96449.34;5022305;28;20016;-69
2021/10/10 11:28:36;;;;;;;;;;;;;;;18.97;22.67;96452.63;5021202;28;20374;-69
2021/10/10 11:31:11;;;;;;;;;;;;;;;18.65;19.43;96436.28;5015151;28;19924;-69
2021/10/10 11:33:40;;;;;;;;;;;;;;;19.15;19.07;96434.91;5022490;28;20047;-69
2021/10/10 11:36:06;;;;;;;;;;;;;;;19.23;18.88;96431.16;5017877;28;19932;-68
2021/10/10 11:38:51;;;;;;;;;;;;;;;19.40;19.06;96426.94;5022208;28;19925;-68
2021/10/10 11:41:16;;;;;;;;;;;;;;;19.18;18.90;96424.50;5021422;28;19928;-69
2021/10/10 11:43:51;;;;;;;;;;;;;;;18.92;20.20;96415.50;5021252;28;19929;-69
2021/10/10 11:46:20;;;;;;;;;;;;;;;19.00;19.93;96422.50;5019614;28;19983;-69
2021/10/10 11:48:46;;;;;;;;;;;;;;;19.15;19.50;96426.81;5019146;28;20548;-69
2021/10/10 11:51:24;;;;;;;;;;;;;;;19.45;21.35;96416.31;5019229;28;20012;-69
2021/10/10 11:53:50;;;;;;;;;;;;;;;17.88;20.64;96416.78;5021681;28;19917;-69
2021/10/10 11:56:15;;;;;;;;;;;;;;;18.79;20.85;96416.34;5012463;28;20028;-69
2021/10/10 11:58:41;;;;;;;;;;;;;;;19.42;23.88;96414.06;5021004;28;20007;-70
2021/10/10 12:01:07;;;;;;;;;;;;;;;20.05;19.91;96411.63;5030757;28;20129;-69
2021/10/10 12:03:32;;;;;;;;;;;;;;;20.50;19.94;96407.09;5018299;28;19988;-70
2021/10/10 12:05:58;;;;;;;;;;;;;;;20.48;20.10;96411.88;5021499;28;20401;-70
2021/10/10 12:08:23;;;;;;;;;;;;;;;20.48;19.96;96414.56;5019807;28;19931;-70
2021/10/10 12:10:48;;;;;;;;;;;;;;;20.56;19.41;96413.47;5021797;28;19944;-69
2021/10/10 12:13:18;;;;;;;;;;;;;;;20.73;19.08;96421.84;5020488;28;19972;-69
2021/10/10 12:15:43;;;;;;;;;;;;;;;20.66;21.43;96431.94;5019428;28;20418;-69
2021/10/10 12:18:12;;;;;;;;;;;;;;;20.17;21.02;96427.97;5012620;28;20016;-69
2021/10/10 12:20:37;;;;;;;;;;;;;;;20.86;19.91;96429.84;5021406;28;20414;-70
2021/10/10 12:23:05;;;;;;;;;;;;;;;20.88;17.59;96426.91;5020248;28;19935;-69
2021/10/10 12:25:40;;;;;;;;;;;;;;;19.67;19.34;96426.81;5019933;28;19967;-69
2021/10/10 12:28:14;;;;;;;;;;;;;;;20.25;20.10;96424.13;5018362;28;21335;-69
2021/10/10 12:30:43;;;;;;;;;;;;;;;20.53;19.55;96420.13;5012740;28;19921;-69
2021/10/10 12:33:20;;;;;;;;;;;;;;;21.58;18.17;96422.13;5017162;28;20288;-69
2021/10/10 12:35:53;;;;;;;;;;;;;;;22.71;16.82;96408.09;5020056;28;20316;-69
2021/10/10 12:38:26;;;;;;;;;;;;;;;23.49;16.92;96398.81;5020168;28;19924;-69
2021/10/10 12:40:51;;;;;;;;;;;;;;;23.06;15.88;96396.34;5017044;28;19928;-69
2021/10/10 12:43:31;;;;;;;;;;;;;;;21.08;19.36;96391.47;5017293;28;20186;-68
2021/10/10 12:46:00;;;;;;;;;;;;;;;22.15;19.02;96388.38;5020964;28;19916;-69
2021/10/10 12:48:25;;;;;;;;;;;;;;;22.41;18.68;96385.44;5019159;28;20237;-69
2021/10/10 12:50:51;;;;;;;;;;;;;;;22.07;19.54;96386.00;5020317;28;20020;-69
2021/10/10 12:53:26;;;;;;;;;;;;;;;21.98;19.23;96382.78;5016607;28;20016;-69